sensor_id;sensor_type;location;lat;lon;timestamp;P1;durP1;ratioP1;P2;durP2;ratioP2
20000;SDS011;10161;41.188;-8.642;2022-12-18T00:01:56;7.80;;;6.27;;
20000;SDS011;10161;41.188;-8.642;2022-12-18T00:04:24;7.20;;;5.80;;
20000;SDS011;10161;41.188;-8.642;2022-12-18T00:06:51;10.63;;;6.73;;
20000;SDS011;10161;41.188;-8.642;2022-12-18T00:09:19;6.80;;;5.57;;
20000;SDS011;10161;41.188;-8.642;2022-12-18T00:11:46;10.20;;;6.20;;
20000;SDS011;10161;41.188;-8.642;2022-12-18T00:14:15;8.73;;;6.03;;
20000;SDS011;10161;41.188;-8.642;2022-12-18T00:16:43;11.67;;;6.97;;
20000;SDS011;10161;41.188;-8.642;2022-12-18T00:19:11;9.57;;;6.63;;
20000;SDS011;10161;41.188;-8.642;2022-12-18T00:21:39;7.37;;;5.63;;
20000;SDS011;10161;41.188;-8.642;2022-12-18T00:24:06;12.63;;;6.90;;
20000;SDS011;10161;41.188;-8.642;2022-12-18T00:26:33;12.03;;;7.07;;
20000;SDS011;10161;41.188;-8.642;2022-12-18T00:29:02;6.80;;;5.20;;
20000;SDS011;10161;41.188;-8.642;2022-12-18T00:31:32;8.03;;;5.90;;
20000;SDS011;10161;41.188;-8.642;2022-12-18T00:33:59;9.03;;;5.50;;
20000;SDS011;10161;41.188;-8.642;2022-12-18T00:36:27;8.20;;;5.87;;
20000;SDS011;10161;41.188;-8.642;2022-12-18T00:38:58;6.07;;;5.47;;
20000;SDS011;10161;41.188;-8.642;2022-12-18T00:41:28;9.57;;;6.47;;
20000;SDS011;10161;41.188;-8.642;2022-12-18T00:44:13;9.90;;;5.97;;
20000;SDS011;10161;41.188;-8.642;2022-12-18T00:46:42;7.70;;;5.83;;
20000;SDS011;10161;41.188;-8.642;2022-12-18T00:49:10;8.23;;;6.17;;
20000;SDS011;10161;41.188;-8.642;2022-12-18T00:51:39;6.77;;;5.53;;
20000;SDS011;10161;41.188;-8.642;2022-12-18T00:54:06;10.13;;;5.70;;
20000;SDS011;10161;41.188;-8.642;2022-12-18T00:56:34;10.97;;;6.03;;
20000;SDS011;10161;41.188;-8.642;2022-12-18T00:59:02;8.50;;;5.80;;
20000;SDS011;10161;41.188;-8.642;2022-12-18T01:01:29;8.00;;;5.80;;
20000;SDS011;10161;41.188;-8.642;2022-12-18T01:03:57;7.20;;;4.87;;
20000;SDS011;10161;41.188;-8.642;2022-12-18T01:06:25;8.43;;;5.50;;
20000;SDS011;10161;41.188;-8.642;2022-12-18T01:08:52;8.03;;;4.97;;
20000;SDS011;10161;41.188;-8.642;2022-12-18T01:11:19;7.83;;;5.33;;
20000;SDS011;10161;41.188;-8.642;2022-12-18T01:13:47;8.43;;;5.23;;
20000;SDS011;10161;41.188;-8.642;2022-12-18T01:16:15;11.00;;;5.53;;
20000;SDS011;10161;41.188;-8.642;2022-12-18T01:18:42;6.43;;;4.87;;
20000;SDS011;10161;41.188;-8.642;2022-12-18T01:21:11;8.03;;;5.40;;
20000;SDS011;10161;41.188;-8.642;2022-12-18T01:23:45;5.13;;;4.10;;
20000;SDS011;10161;41.188;-8.642;2022-12-18T01:26:13;7.77;;;4.53;;
20000;SDS011;10161;41.188;-8.642;2022-12-18T01:28:41;5.67;;;3.57;;
20000;SDS011;10161;41.188;-8.642;2022-12-18T01:31:10;6.83;;;3.87;;
20000;SDS011;10161;41.188;-8.642;2022-12-18T01:33:41;7.70;;;4.13;;
20000;SDS011;10161;41.188;-8.642;2022-12-18T01:36:11;5.83;;;3.17;;
20000;SDS011;10161;41.188;-8.642;2022-12-18T01:38:42;8.20;;;3.63;;
20000;SDS011;10161;41.188;-8.642;2022-12-18T01:41:09;8.70;;;4.00;;
20000;SDS011;10161;41.188;-8.642;2022-12-18T01:43:44;9.10;;;3.50;;
20000;SDS011;10161;41.188;-8.642;2022-12-18T01:46:12;5.50;;;2.90;;
20000;SDS011;10161;41.188;-8.642;2022-12-18T01:48:40;7.63;;;2.90;;
20000;SDS011;10161;41.188;-8.642;2022-12-18T01:51:07;5.23;;;3.10;;
20000;SDS011;10161;41.188;-8.642;2022-12-18T01:53:37;4.70;;;2.53;;
20000;SDS011;10161;41.188;-8.642;2022-12-18T01:56:06;5.63;;;3.10;;
20000;SDS011;10161;41.188;-8.642;2022-12-18T01:58:35;5.20;;;2.33;;
20000;SDS011;10161;41.188;-8.642;2022-12-18T02:01:06;7.07;;;2.90;;
20000;SDS011;10161;41.188;-8.642;2022-12-18T02:03:33;6.30;;;2.73;;
20000;SDS011;10161;41.188;-8.642;2022-12-18T02:06:01;5.47;;;2.83;;
20000;SDS011;10161;41.188;-8.642;2022-12-18T02:08:33;4.50;;;2.70;;
20000;SDS011;10161;41.188;-8.642;2022-12-18T02:11:06;8.60;;;3.03;;
20000;SDS011;10161;41.188;-8.642;2022-12-18T02:13:37;4.60;;;2.30;;
20000;SDS011;10161;41.188;-8.642;2022-12-18T02:16:09;7.90;;;2.67;;
20000;SDS011;10161;41.188;-8.642;2022-12-18T02:18:43;6.10;;;3.03;;
20000;SDS011;10161;41.188;-8.642;2022-12-18T02:21:12;5.10;;;2.17;;
20000;SDS011;10161;41.188;-8.642;2022-12-18T02:23:50;5.63;;;2.70;;
20000;SDS011;10161;41.188;-8.642;2022-12-18T02:26:24;6.50;;;2.20;;
20000;SDS011;10161;41.188;-8.642;2022-12-18T02:28:53;6.07;;;2.53;;
20000;SDS011;10161;41.188;-8.642;2022-12-18T02:31:23;5.10;;;2.23;;
20000;SDS011;10161;41.188;-8.642;2022-12-18T02:33:53;4.60;;;2.37;;
20000;SDS011;10161;41.188;-8.642;2022-12-18T02:36:21;5.03;;;2.60;;
20000;SDS011;10161;41.188;-8.642;2022-12-18T02:38:49;8.60;;;2.50;;
20000;SDS011;10161;41.188;-8.642;2022-12-18T02:41:17;6.30;;;2.30;;
20000;SDS011;10161;41.188;-8.642;2022-12-18T02:43:49;7.40;;;2.47;;
20000;SDS011;10161;41.188;-8.642;2022-12-18T02:46:31;6.00;;;2.03;;
20000;SDS011;10161;41.188;-8.642;2022-12-18T02:49:02;7.90;;;2.20;;
20000;SDS011;10161;41.188;-8.642;2022-12-18T02:51:35;5.37;;;2.33;;
20000;SDS011;10161;41.188;-8.642;2022-12-18T02:54:08;6.20;;;2.40;;
20000;SDS011;10161;41.188;-8.642;2022-12-18T02:56:38;3.60;;;2.30;;
20000;SDS011;10161;41.188;-8.642;2022-12-18T02:59:09;2.50;;;1.77;;
20000;SDS011;10161;41.188;-8.642;2022-12-18T03:01:41;5.40;;;2.10;;
20000;SDS011;10161;41.188;-8.642;2022-12-18T03:04:12;3.73;;;1.90;;
20000;SDS011;10161;41.188;-8.642;2022-12-18T03:06:42;6.07;;;2.30;;
20000;SDS011;10161;41.188;-8.642;2022-12-18T03:09:12;3.63;;;2.10;;
20000;SDS011;10161;41.188;-8.642;2022-12-18T03:11:42;5.07;;;2.13;;
20000;SDS011;10161;41.188;-8.642;2022-12-18T03:14:31;4.00;;;1.73;;
20000;SDS011;10161;41.188;-8.642;2022-12-18T03:17:00;6.80;;;2.47;;
20000;SDS011;10161;41.188;-8.642;2022-12-18T03:19:29;5.20;;;2.33;;
20000;SDS011;10161;41.188;-8.642;2022-12-18T03:22:00;5.23;;;2.20;;
20000;SDS011;10161;41.188;-8.642;2022-12-18T03:24:29;3.10;;;1.83;;
20000;SDS011;10161;41.188;-8.642;2022-12-18T03:26:58;8.70;;;2.77;;
20000;SDS011;10161;41.188;-8.642;2022-12-18T03:29:28;3.00;;;2.07;;
20000;SDS011;10161;41.188;-8.642;2022-12-18T03:32:01;7.67;;;1.77;;
20000;SDS011;10161;41.188;-8.642;2022-12-18T03:34:30;5.20;;;2.10;;
20000;SDS011;10161;41.188;-8.642;2022-12-18T03:36:58;5.43;;;2.60;;
20000;SDS011;10161;41.188;-8.642;2022-12-18T03:39:24;4.27;;;1.93;;
20000;SDS011;10161;41.188;-8.642;2022-12-18T03:41:52;3.23;;;2.07;;
20000;SDS011;10161;41.188;-8.642;2022-12-18T03:44:25;3.73;;;1.93;;
20000;SDS011;10161;41.188;-8.642;2022-12-18T03:46:58;4.90;;;2.20;;
20000;SDS011;10161;41.188;-8.642;2022-12-18T03:49:31;4.00;;;2.00;;
20000;SDS011;10161;41.188;-8.642;2022-12-18T03:52:02;4.50;;;2.30;;
20000;SDS011;10161;41.188;-8.642;2022-12-18T03:54:30;2.70;;;1.93;;
20000;SDS011;10161;41.188;-8.642;2022-12-18T03:56:58;3.50;;;1.73;;
20000;SDS011;10161;41.188;-8.642;2022-12-18T03:59:28;6.10;;;1.70;;
20000;SDS011;10161;41.188;-8.642;2022-12-18T04:01:57;7.00;;;2.30;;
20000;SDS011;10161;41.188;-8.642;2022-12-18T04:04:26;4.80;;;1.90;;
20000;SDS011;10161;41.188;-8.642;2022-12-18T04:06:54;5.97;;;2.20;;
20000;SDS011;10161;41.188;-8.642;2022-12-18T04:09:21;2.80;;;1.77;;
20000;SDS011;10161;41.188;-8.642;2022-12-18T04:11:49;5.10;;;2.03;;
20000;SDS011;10161;41.188;-8.642;2022-12-18T04:14:15;3.10;;;1.87;;
20000;SDS011;10161;41.188;-8.642;2022-12-18T04:16:42;4.60;;;1.87;;
20000;SDS011;10161;41.188;-8.642;2022-12-18T04:19:11;3.30;;;1.70;;
20000;SDS011;10161;41.188;-8.642;2022-12-18T04:21:38;4.03;;;1.60;;
20000;SDS011;10161;41.188;-8.642;2022-12-18T04:24:05;3.27;;;2.00;;
20000;SDS011;10161;41.188;-8.642;2022-12-18T04:26:32;7.47;;;1.90;;
20000;SDS011;10161;41.188;-8.642;2022-12-18T04:28:59;3.50;;;1.77;;
20000;SDS011;10161;41.188;-8.642;2022-12-18T04:31:26;5.40;;;1.80;;
20000;SDS011;10161;41.188;-8.642;2022-12-18T04:33:53;8.97;;;2.20;;
20000;SDS011;10161;41.188;-8.642;2022-12-18T04:36:21;3.37;;;1.70;;
20000;SDS011;10161;41.188;-8.642;2022-12-18T04:38:48;3.97;;;1.80;;
20000;SDS011;10161;41.188;-8.642;2022-12-18T04:41:15;4.77;;;1.70;;
20000;SDS011;10161;41.188;-8.642;2022-12-18T04:43:42;3.50;;;1.77;;
20000;SDS011;10161;41.188;-8.642;2022-12-18T04:46:09;3.77;;;1.73;;
20000;SDS011;10161;41.188;-8.642;2022-12-18T04:48:36;4.20;;;2.10;;
20000;SDS011;10161;41.188;-8.642;2022-12-18T04:51:03;4.73;;;1.80;;
20000;SDS011;10161;41.188;-8.642;2022-12-18T04:53:32;4.43;;;2.00;;
20000;SDS011;10161;41.188;-8.642;2022-12-18T04:56:04;5.30;;;1.73;;
20000;SDS011;10161;41.188;-8.642;2022-12-18T04:58:31;4.07;;;1.60;;
20000;SDS011;10161;41.188;-8.642;2022-12-18T05:00:58;2.50;;;1.30;;
20000;SDS011;10161;41.188;-8.642;2022-12-18T05:03:25;4.63;;;1.90;;
20000;SDS011;10161;41.188;-8.642;2022-12-18T05:05:52;4.33;;;1.93;;
20000;SDS011;10161;41.188;-8.642;2022-12-18T05:08:19;6.40;;;2.03;;
20000;SDS011;10161;41.188;-8.642;2022-12-18T05:10:48;3.23;;;2.07;;
20000;SDS011;10161;41.188;-8.642;2022-12-18T05:13:15;4.27;;;1.93;;
20000;SDS011;10161;41.188;-8.642;2022-12-18T05:15:42;2.43;;;1.67;;
20000;SDS011;10161;41.188;-8.642;2022-12-18T05:18:09;5.23;;;1.83;;
20000;SDS011;10161;41.188;-8.642;2022-12-18T05:20:36;4.50;;;1.87;;
20000;SDS011;10161;41.188;-8.642;2022-12-18T05:23:02;2.93;;;1.80;;
20000;SDS011;10161;41.188;-8.642;2022-12-18T05:25:29;3.90;;;1.70;;
20000;SDS011;10161;41.188;-8.642;2022-12-18T05:27:58;3.70;;;1.60;;
20000;SDS011;10161;41.188;-8.642;2022-12-18T05:30:25;3.47;;;1.77;;
20000;SDS011;10161;41.188;-8.642;2022-12-18T05:32:52;3.47;;;1.80;;
20000;SDS011;10161;41.188;-8.642;2022-12-18T05:35:19;5.63;;;1.87;;
20000;SDS011;10161;41.188;-8.642;2022-12-18T05:37:46;4.73;;;1.90;;
20000;SDS011;10161;41.188;-8.642;2022-12-18T05:40:13;2.30;;;1.50;;
20000;SDS011;10161;41.188;-8.642;2022-12-18T05:42:40;7.03;;;1.53;;
20000;SDS011;10161;41.188;-8.642;2022-12-18T05:45:09;5.03;;;1.60;;
20000;SDS011;10161;41.188;-8.642;2022-12-18T05:47:36;4.80;;;2.00;;
20000;SDS011;10161;41.188;-8.642;2022-12-18T05:50:03;3.97;;;1.80;;
20000;SDS011;10161;41.188;-8.642;2022-12-18T05:52:32;3.80;;;1.80;;
20000;SDS011;10161;41.188;-8.642;2022-12-18T05:54:58;4.27;;;1.70;;
20000;SDS011;10161;41.188;-8.642;2022-12-18T05:57:25;3.60;;;1.70;;
20000;SDS011;10161;41.188;-8.642;2022-12-18T05:59:52;2.83;;;1.50;;
20000;SDS011;10161;41.188;-8.642;2022-12-18T06:02:21;2.00;;;1.40;;
20000;SDS011;10161;41.188;-8.642;2022-12-18T06:04:48;3.63;;;1.70;;
20000;SDS011;10161;41.188;-8.642;2022-12-18T06:07:14;2.07;;;1.57;;
20000;SDS011;10161;41.188;-8.642;2022-12-18T06:09:41;4.30;;;1.80;;
20000;SDS011;10161;41.188;-8.642;2022-12-18T06:12:08;4.33;;;1.93;;
20000;SDS011;10161;41.188;-8.642;2022-12-18T06:14:36;4.80;;;1.60;;
20000;SDS011;10161;41.188;-8.642;2022-12-18T06:17:03;5.80;;;1.73;;
20000;SDS011;10161;41.188;-8.642;2022-12-18T06:19:31;1.80;;;1.50;;
20000;SDS011;10161;41.188;-8.642;2022-12-18T06:21:58;5.70;;;2.67;;
20000;SDS011;10161;41.188;-8.642;2022-12-18T06:24:25;6.00;;;1.70;;
20000;SDS011;10161;41.188;-8.642;2022-12-18T06:26:52;2.53;;;1.53;;
20000;SDS011;10161;41.188;-8.642;2022-12-18T06:29:19;2.23;;;1.60;;
20000;SDS011;10161;41.188;-8.642;2022-12-18T06:31:46;4.87;;;1.60;;
20000;SDS011;10161;41.188;-8.642;2022-12-18T06:34:13;5.13;;;1.60;;
20000;SDS011;10161;41.188;-8.642;2022-12-18T06:36:42;2.43;;;1.40;;
20000;SDS011;10161;41.188;-8.642;2022-12-18T06:39:09;3.70;;;1.67;;
20000;SDS011;10161;41.188;-8.642;2022-12-18T06:41:36;3.20;;;2.03;;
20000;SDS011;10161;41.188;-8.642;2022-12-18T06:44:03;3.07;;;1.57;;
20000;SDS011;10161;41.188;-8.642;2022-12-18T06:46:30;2.87;;;1.90;;
20000;SDS011;10161;41.188;-8.642;2022-12-18T06:48:58;2.60;;;1.60;;
20000;SDS011;10161;41.188;-8.642;2022-12-18T06:51:25;3.70;;;1.97;;
20000;SDS011;10161;41.188;-8.642;2022-12-18T06:53:54;3.93;;;1.60;;
20000;SDS011;10161;41.188;-8.642;2022-12-18T06:56:21;2.80;;;1.50;;
20000;SDS011;10161;41.188;-8.642;2022-12-18T06:58:48;3.07;;;1.63;;
20000;SDS011;10161;41.188;-8.642;2022-12-18T07:01:15;2.50;;;1.20;;
20000;SDS011;10161;41.188;-8.642;2022-12-18T07:03:42;3.27;;;1.50;;
20000;SDS011;10161;41.188;-8.642;2022-12-18T07:06:13;1.77;;;1.17;;
20000;SDS011;10161;41.188;-8.642;2022-12-18T07:08:41;3.10;;;1.60;;
20000;SDS011;10161;41.188;-8.642;2022-12-18T07:11:09;4.10;;;1.73;;
20000;SDS011;10161;41.188;-8.642;2022-12-18T07:13:36;1.73;;;1.10;;
20000;SDS011;10161;41.188;-8.642;2022-12-18T07:16:04;4.97;;;1.60;;
20000;SDS011;10161;41.188;-8.642;2022-12-18T07:18:32;2.97;;;1.47;;
20000;SDS011;10161;41.188;-8.642;2022-12-18T07:21:02;2.77;;;1.40;;
20000;SDS011;10161;41.188;-8.642;2022-12-18T07:23:30;5.00;;;1.60;;
20000;SDS011;10161;41.188;-8.642;2022-12-18T07:26:00;3.03;;;1.87;;
20000;SDS011;10161;41.188;-8.642;2022-12-18T07:28:29;3.53;;;1.70;;
20000;SDS011;10161;41.188;-8.642;2022-12-18T07:30:56;2.23;;;1.23;;
20000;SDS011;10161;41.188;-8.642;2022-12-18T07:33:24;2.10;;;1.40;;
20000;SDS011;10161;41.188;-8.642;2022-12-18T07:35:51;3.93;;;1.60;;
20000;SDS011;10161;41.188;-8.642;2022-12-18T07:38:17;2.00;;;1.53;;
20000;SDS011;10161;41.188;-8.642;2022-12-18T07:40:44;3.40;;;1.70;;
20000;SDS011;10161;41.188;-8.642;2022-12-18T07:43:11;3.70;;;1.80;;
20000;SDS011;10161;41.188;-8.642;2022-12-18T07:45:40;2.23;;;1.30;;
20000;SDS011;10161;41.188;-8.642;2022-12-18T07:48:07;3.07;;;1.57;;
20000;SDS011;10161;41.188;-8.642;2022-12-18T07:50:33;3.17;;;1.87;;
20000;SDS011;10161;41.188;-8.642;2022-12-18T07:53:00;2.47;;;1.70;;
20000;SDS011;10161;41.188;-8.642;2022-12-18T07:55:29;3.63;;;1.53;;
20000;SDS011;10161;41.188;-8.642;2022-12-18T07:57:56;3.60;;;1.60;;
20000;SDS011;10161;41.188;-8.642;2022-12-18T08:00:26;2.20;;;1.47;;
20000;SDS011;10161;41.188;-8.642;2022-12-18T08:02:54;2.23;;;1.50;;
20000;SDS011;10161;41.188;-8.642;2022-12-18T08:05:21;4.53;;;1.50;;
20000;SDS011;10161;41.188;-8.642;2022-12-18T08:07:48;5.47;;;1.97;;
20000;SDS011;10161;41.188;-8.642;2022-12-18T08:10:15;3.30;;;1.50;;
20000;SDS011;10161;41.188;-8.642;2022-12-18T08:12:43;3.93;;;1.70;;
20000;SDS011;10161;41.188;-8.642;2022-12-18T08:15:10;8.27;;;1.80;;
20000;SDS011;10161;41.188;-8.642;2022-12-18T08:17:37;5.67;;;1.70;;
20000;SDS011;10161;41.188;-8.642;2022-12-18T08:20:06;5.40;;;1.60;;
20000;SDS011;10161;41.188;-8.642;2022-12-18T08:22:34;4.63;;;1.80;;
20000;SDS011;10161;41.188;-8.642;2022-12-18T08:25:01;3.53;;;1.63;;
20000;SDS011;10161;41.188;-8.642;2022-12-18T08:27:28;4.13;;;1.90;;
20000;SDS011;10161;41.188;-8.642;2022-12-18T08:29:55;7.60;;;1.87;;
20000;SDS011;10161;41.188;-8.642;2022-12-18T08:32:22;5.70;;;1.50;;
20000;SDS011;10161;41.188;-8.642;2022-12-18T08:34:49;6.00;;;1.37;;
20000;SDS011;10161;41.188;-8.642;2022-12-18T08:37:18;3.87;;;1.93;;
20000;SDS011;10161;41.188;-8.642;2022-12-18T08:39:45;5.33;;;2.00;;
20000;SDS011;10161;41.188;-8.642;2022-12-18T08:42:12;4.40;;;1.80;;
20000;SDS011;10161;41.188;-8.642;2022-12-18T08:44:56;4.00;;;1.80;;
20000;SDS011;10161;41.188;-8.642;2022-12-18T08:47:23;3.20;;;1.77;;
20000;SDS011;10161;41.188;-8.642;2022-12-18T08:49:51;6.87;;;1.63;;
20000;SDS011;10161;41.188;-8.642;2022-12-18T08:52:19;2.60;;;1.50;;
20000;SDS011;10161;41.188;-8.642;2022-12-18T08:54:46;4.10;;;1.63;;
20000;SDS011;10161;41.188;-8.642;2022-12-18T08:57:13;8.03;;;2.10;;
20000;SDS011;10161;41.188;-8.642;2022-12-18T08:59:40;3.83;;;1.40;;
20000;SDS011;10161;41.188;-8.642;2022-12-18T09:02:07;5.77;;;2.17;;
20000;SDS011;10161;41.188;-8.642;2022-12-18T09:04:34;2.50;;;1.60;;
20000;SDS011;10161;41.188;-8.642;2022-12-18T09:07:01;2.40;;;1.50;;
20000;SDS011;10161;41.188;-8.642;2022-12-18T09:09:30;3.90;;;1.67;;
20000;SDS011;10161;41.188;-8.642;2022-12-18T09:11:57;4.60;;;1.57;;
20000;SDS011;10161;41.188;-8.642;2022-12-18T09:14:24;4.70;;;1.83;;
20000;SDS011;10161;41.188;-8.642;2022-12-18T09:16:51;5.40;;;1.87;;
20000;SDS011;10161;41.188;-8.642;2022-12-18T09:19:17;3.43;;;1.50;;
20000;SDS011;10161;41.188;-8.642;2022-12-18T09:21:44;6.87;;;2.00;;
20000;SDS011;10161;41.188;-8.642;2022-12-18T09:24:12;4.30;;;1.80;;
20000;SDS011;10161;41.188;-8.642;2022-12-18T09:26:41;4.00;;;1.63;;
20000;SDS011;10161;41.188;-8.642;2022-12-18T09:29:08;4.60;;;1.60;;
20000;SDS011;10161;41.188;-8.642;2022-12-18T09:31:35;2.70;;;1.70;;
20000;SDS011;10161;41.188;-8.642;2022-12-18T09:34:02;4.90;;;1.90;;
20000;SDS011;10161;41.188;-8.642;2022-12-18T09:36:29;4.20;;;1.83;;
20000;SDS011;10161;41.188;-8.642;2022-12-18T09:38:56;8.47;;;1.93;;
20000;SDS011;10161;41.188;-8.642;2022-12-18T09:41:39;2.73;;;1.60;;
20000;SDS011;10161;41.188;-8.642;2022-12-18T09:44:12;7.40;;;2.10;;
20000;SDS011;10161;41.188;-8.642;2022-12-18T09:46:44;5.83;;;1.90;;
20000;SDS011;10161;41.188;-8.642;2022-12-18T09:49:13;6.53;;;2.03;;
20000;SDS011;10161;41.188;-8.642;2022-12-18T09:51:43;5.73;;;2.07;;
20000;SDS011;10161;41.188;-8.642;2022-12-18T09:54:12;5.37;;;1.80;;
20000;SDS011;10161;41.188;-8.642;2022-12-18T09:56:44;3.40;;;1.90;;
20000;SDS011;10161;41.188;-8.642;2022-12-18T09:59:14;4.00;;;1.73;;
20000;SDS011;10161;41.188;-8.642;2022-12-18T10:01:47;5.90;;;1.90;;
20000;SDS011;10161;41.188;-8.642;2022-12-18T10:04:13;4.80;;;1.90;;
20000;SDS011;10161;41.188;-8.642;2022-12-18T10:06:42;4.70;;;2.10;;
20000;SDS011;10161;41.188;-8.642;2022-12-18T10:09:14;4.67;;;1.57;;
20000;SDS011;10161;41.188;-8.642;2022-12-18T10:11:49;4.00;;;1.90;;
20000;SDS011;10161;41.188;-8.642;2022-12-18T10:14:22;3.33;;;1.63;;
20000;SDS011;10161;41.188;-8.642;2022-12-18T10:16:54;4.10;;;1.70;;
20000;SDS011;10161;41.188;-8.642;2022-12-18T10:19:29;2.80;;;1.77;;
20000;SDS011;10161;41.188;-8.642;2022-12-18T10:22:08;3.53;;;1.60;;
20000;SDS011;10161;41.188;-8.642;2022-12-18T10:24:42;3.60;;;1.60;;
20000;SDS011;10161;41.188;-8.642;2022-12-18T10:27:14;4.40;;;1.73;;
20000;SDS011;10161;41.188;-8.642;2022-12-18T10:29:42;3.07;;;2.07;;
20000;SDS011;10161;41.188;-8.642;2022-12-18T10:32:13;4.43;;;1.90;;
20000;SDS011;10161;41.188;-8.642;2022-12-18T10:34:41;4.20;;;1.60;;
20000;SDS011;10161;41.188;-8.642;2022-12-18T10:37:11;2.43;;;1.50;;
20000;SDS011;10161;41.188;-8.642;2022-12-18T10:39:43;3.77;;;1.70;;
20000;SDS011;10161;41.188;-8.642;2022-12-18T10:42:10;5.47;;;1.80;;
20000;SDS011;10161;41.188;-8.642;2022-12-18T10:44:42;4.33;;;1.77;;
20000;SDS011;10161;41.188;-8.642;2022-12-18T10:47:11;3.57;;;1.43;;
20000;SDS011;10161;41.188;-8.642;2022-12-18T10:49:40;5.70;;;1.90;;
20000;SDS011;10161;41.188;-8.642;2022-12-18T10:52:14;2.90;;;1.80;;
20000;SDS011;10161;41.188;-8.642;2022-12-18T10:54:48;3.57;;;1.80;;
20000;SDS011;10161;41.188;-8.642;2022-12-18T10:57:19;4.73;;;1.80;;
20000;SDS011;10161;41.188;-8.642;2022-12-18T10:59:59;3.50;;;1.93;;
20000;SDS011;10161;41.188;-8.642;2022-12-18T11:02:33;4.23;;;1.90;;
20000;SDS011;10161;41.188;-8.642;2022-12-18T11:05:01;2.83;;;1.63;;
20000;SDS011;10161;41.188;-8.642;2022-12-18T11:07:45;4.73;;;2.07;;
20000;SDS011;10161;41.188;-8.642;2022-12-18T11:10:16;6.13;;;1.90;;
20000;SDS011;10161;41.188;-8.642;2022-12-18T11:12:43;2.57;;;1.60;;
20000;SDS011;10161;41.188;-8.642;2022-12-18T11:15:15;2.90;;;1.80;;
20000;SDS011;10161;41.188;-8.642;2022-12-18T11:17:43;3.30;;;1.90;;
20000;SDS011;10161;41.188;-8.642;2022-12-18T11:20:21;3.63;;;2.13;;
20000;SDS011;10161;41.188;-8.642;2022-12-18T11:22:56;3.73;;;1.70;;
20000;SDS011;10161;41.188;-8.642;2022-12-18T11:25:25;2.80;;;1.70;;
20000;SDS011;10161;41.188;-8.642;2022-12-18T11:27:52;4.30;;;2.30;;
20000;SDS011;10161;41.188;-8.642;2022-12-18T11:30:23;7.30;;;1.97;;
20000;SDS011;10161;41.188;-8.642;2022-12-18T11:32:52;4.13;;;1.57;;
20000;SDS011;10161;41.188;-8.642;2022-12-18T11:35:21;3.23;;;1.60;;
20000;SDS011;10161;41.188;-8.642;2022-12-18T11:37:53;4.63;;;1.97;;
20000;SDS011;10161;41.188;-8.642;2022-12-18T11:40:30;6.33;;;1.77;;
20000;SDS011;10161;41.188;-8.642;2022-12-18T11:43:02;2.90;;;1.70;;
20000;SDS011;10161;41.188;-8.642;2022-12-18T11:45:35;5.83;;;1.70;;
20000;SDS011;10161;41.188;-8.642;2022-12-18T11:48:11;3.53;;;2.10;;
20000;SDS011;10161;41.188;-8.642;2022-12-18T11:50:42;6.50;;;5.90;;
20000;SDS011;10161;41.188;-8.642;2022-12-18T11:53:13;4.00;;;2.50;;
20000;SDS011;10161;41.188;-8.642;2022-12-18T11:55:41;4.83;;;2.40;;
20000;SDS011;10161;41.188;-8.642;2022-12-18T11:58:16;7.93;;;2.70;;
20000;SDS011;10161;41.188;-8.642;2022-12-18T12:00:53;6.63;;;2.23;;
20000;SDS011;10161;41.188;-8.642;2022-12-18T12:03:33;4.97;;;2.77;;
20000;SDS011;10161;41.188;-8.642;2022-12-18T12:06:20;4.23;;;2.93;;
20000;SDS011;10161;41.188;-8.642;2022-12-18T12:08:53;4.23;;;3.07;;
20000;SDS011;10161;41.188;-8.642;2022-12-18T12:11:30;9.63;;;3.23;;
20000;SDS011;10161;41.188;-8.642;2022-12-18T12:14:06;4.37;;;3.13;;
20000;SDS011;10161;41.188;-8.642;2022-12-18T12:16:46;3.90;;;2.70;;
20000;SDS011;10161;41.188;-8.642;2022-12-18T12:19:20;6.17;;;3.30;;
20000;SDS011;10161;41.188;-8.642;2022-12-18T12:21:54;4.90;;;3.00;;
20000;SDS011;10161;41.188;-8.642;2022-12-18T12:24:30;15.07;;;6.80;;
20000;SDS011;10161;41.188;-8.642;2022-12-18T12:27:05;12.30;;;5.73;;
20000;SDS011;10161;41.188;-8.642;2022-12-18T12:29:39;2.93;;;2.53;;
20000;SDS011;10161;41.188;-8.642;2022-12-18T12:32:17;5.73;;;1.80;;
20000;SDS011;10161;41.188;-8.642;2022-12-18T12:34:52;3.57;;;1.70;;
20000;SDS011;10161;41.188;-8.642;2022-12-18T12:37:27;2.73;;;1.53;;
20000;SDS011;10161;41.188;-8.642;2022-12-18T12:39:59;4.87;;;2.10;;
20000;SDS011;10161;41.188;-8.642;2022-12-18T12:42:29;3.70;;;1.83;;
20000;SDS011;10161;41.188;-8.642;2022-12-18T12:45:18;4.63;;;2.20;;
20000;SDS011;10161;41.188;-8.642;2022-12-18T12:47:50;4.00;;;2.23;;
20000;SDS011;10161;41.188;-8.642;2022-12-18T12:50:19;3.40;;;2.17;;
20000;SDS011;10161;41.188;-8.642;2022-12-18T12:52:47;2.83;;;2.30;;
20000;SDS011;10161;41.188;-8.642;2022-12-18T12:55:17;3.80;;;2.27;;
20000;SDS011;10161;41.188;-8.642;2022-12-18T12:57:46;5.03;;;2.30;;
20000;SDS011;10161;41.188;-8.642;2022-12-18T13:00:18;5.00;;;2.10;;
20000;SDS011;10161;41.188;-8.642;2022-12-18T13:02:47;8.63;;;5.70;;
20000;SDS011;10161;41.188;-8.642;2022-12-18T13:05:19;5.03;;;2.80;;
20000;SDS011;10161;41.188;-8.642;2022-12-18T13:07:50;3.60;;;1.73;;
20000;SDS011;10161;41.188;-8.642;2022-12-18T13:10:26;5.77;;;2.00;;
20000;SDS011;10161;41.188;-8.642;2022-12-18T13:12:58;3.40;;;2.03;;
20000;SDS011;10161;41.188;-8.642;2022-12-18T13:15:27;2.13;;;1.50;;
20000;SDS011;10161;41.188;-8.642;2022-12-18T13:20:42;3.73;;;2.33;;
20000;SDS011;10161;41.188;-8.642;2022-12-18T13:23:26;4.40;;;2.00;;
20000;SDS011;10161;41.188;-8.642;2022-12-18T13:25:55;11.20;;;9.50;;
20000;SDS011;10161;41.188;-8.642;2022-12-18T13:28:22;9.97;;;6.40;;
20000;SDS011;10161;41.188;-8.642;2022-12-18T13:30:51;10.67;;;7.30;;
20000;SDS011;10161;41.188;-8.642;2022-12-18T13:36:23;1.90;;;1.70;;
20000;SDS011;10161;41.188;-8.642;2022-12-18T13:45:41;2.10;;;1.90;;
20000;SDS011;10161;41.188;-8.642;2022-12-18T13:48:16;3.87;;;2.67;;
20000;SDS011;10161;41.188;-8.642;2022-12-18T13:53:33;4.17;;;2.53;;
20000;SDS011;10161;41.188;-8.642;2022-12-18T13:56:02;3.23;;;2.00;;
20000;SDS011;10161;41.188;-8.642;2022-12-18T13:58:30;3.30;;;1.60;;
20000;SDS011;10161;41.188;-8.642;2022-12-18T14:00:57;3.47;;;2.70;;
20000;SDS011;10161;41.188;-8.642;2022-12-18T14:03:27;4.73;;;2.57;;
20000;SDS011;10161;41.188;-8.642;2022-12-18T14:05:59;4.20;;;2.97;;
20000;SDS011;10161;41.188;-8.642;2022-12-18T14:08:32;4.97;;;3.10;;
20000;SDS011;10161;41.188;-8.642;2022-12-18T14:11:01;4.50;;;3.10;;
20000;SDS011;10161;41.188;-8.642;2022-12-18T14:13:30;5.67;;;2.80;;
20000;SDS011;10161;41.188;-8.642;2022-12-18T14:16:00;4.60;;;2.77;;
20000;SDS011;10161;41.188;-8.642;2022-12-18T14:18:29;3.63;;;2.30;;
20000;SDS011;10161;41.188;-8.642;2022-12-18T14:21:00;4.53;;;3.07;;
20000;SDS011;10161;41.188;-8.642;2022-12-18T14:23:29;3.97;;;2.30;;
20000;SDS011;10161;41.188;-8.642;2022-12-18T14:25:59;3.80;;;2.77;;
20000;SDS011;10161;41.188;-8.642;2022-12-18T14:28:26;5.23;;;3.63;;
20000;SDS011;10161;41.188;-8.642;2022-12-18T14:30:54;8.93;;;3.93;;
20000;SDS011;10161;41.188;-8.642;2022-12-18T14:33:22;3.50;;;2.47;;
20000;SDS011;10161;41.188;-8.642;2022-12-18T14:35:54;2.90;;;2.60;;
20000;SDS011;10161;41.188;-8.642;2022-12-18T14:38:24;3.67;;;2.73;;
20000;SDS011;10161;41.188;-8.642;2022-12-18T14:40:58;4.87;;;2.70;;
20000;SDS011;10161;41.188;-8.642;2022-12-18T14:43:26;4.10;;;2.77;;
20000;SDS011;10161;41.188;-8.642;2022-12-18T14:45:54;5.07;;;2.30;;
20000;SDS011;10161;41.188;-8.642;2022-12-18T14:48:22;7.53;;;2.73;;
20000;SDS011;10161;41.188;-8.642;2022-12-18T14:50:59;4.73;;;2.73;;
20000;SDS011;10161;41.188;-8.642;2022-12-18T14:53:36;3.90;;;2.10;;
20000;SDS011;10161;41.188;-8.642;2022-12-18T14:56:16;5.53;;;3.07;;
20000;SDS011;10161;41.188;-8.642;2022-12-18T14:58:44;3.40;;;2.40;;
20000;SDS011;10161;41.188;-8.642;2022-12-18T15:01:17;6.40;;;3.20;;
20000;SDS011;10161;41.188;-8.642;2022-12-18T15:03:49;3.10;;;2.33;;